sensor_id;sensor_type;location;lat;lon;timestamp;P1;durP1;ratioP1;P2;durP2;ratioP2
13649;SDS011;6898;50.918;4.688;2023-03-14T00:01:38;318.17;;;120.57;;
13649;SDS011;6898;50.918;4.688;2023-03-14T00:04:06;317.47;;;122.17;;
13649;SDS011;6898;50.918;4.688;2023-03-14T00:06:35;310.23;;;122.05;;
13649;SDS011;6898;50.918;4.688;2023-03-14T00:09:05;315.50;;;123.20;;
13649;SDS011;6898;50.918;4.688;2023-03-14T00:11:33;324.57;;;127.80;;
13649;SDS011;6898;50.918;4.688;2023-03-14T00:14:01;325.73;;;126.57;;
13649;SDS011;6898;50.918;4.688;2023-03-14T00:16:30;327.40;;;131.23;;
13649;SDS011;6898;50.918;4.688;2023-03-14T00:18:58;323.80;;;126.65;;
13649;SDS011;6898;50.918;4.688;2023-03-14T00:21:26;321.30;;;120.50;;
13649;SDS011;6898;50.918;4.688;2023-03-14T00:23:55;319.92;;;116.15;;
13649;SDS011;6898;50.918;4.688;2023-03-14T00:26:25;321.00;;;118.13;;
13649;SDS011;6898;50.918;4.688;2023-03-14T00:28:53;316.40;;;118.72;;
13649;SDS011;6898;50.918;4.688;2023-03-14T00:31:22;317.67;;;117.63;;
13649;SDS011;6898;50.918;4.688;2023-03-14T00:33:51;319.73;;;118.32;;
13649;SDS011;6898;50.918;4.688;2023-03-14T00:36:20;319.13;;;117.72;;
13649;SDS011;6898;50.918;4.688;2023-03-14T00:38:50;320.55;;;121.00;;
13649;SDS011;6898;50.918;4.688;2023-03-14T00:41:19;322.40;;;125.63;;
13649;SDS011;6898;50.918;4.688;2023-03-14T00:43:52;322.63;;;123.63;;
13649;SDS011;6898;50.918;4.688;2023-03-14T00:46:20;323.50;;;127.20;;
13649;SDS011;6898;50.918;4.688;2023-03-14T00:48:49;329.60;;;132.45;;
13649;SDS011;6898;50.918;4.688;2023-03-14T00:51:17;327.57;;;128.77;;
13649;SDS011;6898;50.918;4.688;2023-03-14T00:53:45;325.67;;;125.97;;
13649;SDS011;6898;50.918;4.688;2023-03-14T00:56:14;323.75;;;124.47;;
13649;SDS011;6898;50.918;4.688;2023-03-14T00:58:43;325.90;;;126.85;;
13649;SDS011;6898;50.918;4.688;2023-03-14T01:01:14;323.90;;;122.65;;
13649;SDS011;6898;50.918;4.688;2023-03-14T01:03:44;326.02;;;127.22;;
13649;SDS011;6898;50.918;4.688;2023-03-14T01:06:13;325.70;;;126.53;;
13649;SDS011;6898;50.918;4.688;2023-03-14T01:08:43;323.25;;;122.60;;
13649;SDS011;6898;50.918;4.688;2023-03-14T01:11:12;327.10;;;127.53;;
13649;SDS011;6898;50.918;4.688;2023-03-14T01:13:43;325.77;;;123.83;;
13649;SDS011;6898;50.918;4.688;2023-03-14T01:16:12;325.50;;;124.18;;
13649;SDS011;6898;50.918;4.688;2023-03-14T01:18:43;320.23;;;111.90;;
13649;SDS011;6898;50.918;4.688;2023-03-14T01:21:13;324.33;;;128.82;;
13649;SDS011;6898;50.918;4.688;2023-03-14T01:23:43;322.30;;;125.40;;
13649;SDS011;6898;50.918;4.688;2023-03-14T01:26:12;321.83;;;124.45;;
13649;SDS011;6898;50.918;4.688;2023-03-14T01:28:42;322.90;;;124.47;;
13649;SDS011;6898;50.918;4.688;2023-03-14T01:31:11;321.20;;;120.43;;
13649;SDS011;6898;50.918;4.688;2023-03-14T01:33:41;320.60;;;119.55;;
13649;SDS011;6898;50.918;4.688;2023-03-14T01:36:10;323.02;;;124.10;;
13649;SDS011;6898;50.918;4.688;2023-03-14T01:38:39;324.95;;;124.47;;
13649;SDS011;6898;50.918;4.688;2023-03-14T01:41:09;325.38;;;126.72;;
13649;SDS011;6898;50.918;4.688;2023-03-14T01:43:41;316.42;;;121.57;;
13649;SDS011;6898;50.918;4.688;2023-03-14T01:46:17;316.10;;;115.72;;
13649;SDS011;6898;50.918;4.688;2023-03-14T01:48:55;320.20;;;115.95;;
13649;SDS011;6898;50.918;4.688;2023-03-14T01:51:28;316.02;;;119.18;;
13649;SDS011;6898;50.918;4.688;2023-03-14T01:54:02;319.48;;;115.68;;
13649;SDS011;6898;50.918;4.688;2023-03-14T01:56:35;322.17;;;118.07;;
13649;SDS011;6898;50.918;4.688;2023-03-14T01:59:06;323.77;;;120.20;;
13649;SDS011;6898;50.918;4.688;2023-03-14T02:01:41;323.02;;;122.25;;
13649;SDS011;6898;50.918;4.688;2023-03-14T02:04:12;318.80;;;118.03;;
13649;SDS011;6898;50.918;4.688;2023-03-14T02:06:45;317.35;;;118.00;;
13649;SDS011;6898;50.918;4.688;2023-03-14T02:09:18;318.60;;;116.87;;
13649;SDS011;6898;50.918;4.688;2023-03-14T02:11:47;318.65;;;119.45;;
13649;SDS011;6898;50.918;4.688;2023-03-14T02:14:20;314.75;;;117.97;;
13649;SDS011;6898;50.918;4.688;2023-03-14T02:16:55;317.88;;;119.72;;
13649;SDS011;6898;50.918;4.688;2023-03-14T02:19:28;298.27;;;113.50;;
13649;SDS011;6898;50.918;4.688;2023-03-14T02:22:06;316.03;;;115.57;;
13649;SDS011;6898;50.918;4.688;2023-03-14T02:24:40;306.40;;;119.90;;
13649;SDS011;6898;50.918;4.688;2023-03-14T02:27:17;314.95;;;114.90;;
13649;SDS011;6898;50.918;4.688;2023-03-14T02:29:49;321.67;;;118.95;;
13649;SDS011;6898;50.918;4.688;2023-03-14T02:32:20;320.52;;;119.35;;
13649;SDS011;6898;50.918;4.688;2023-03-14T02:34:55;323.83;;;122.78;;
13649;SDS011;6898;50.918;4.688;2023-03-14T02:37:27;322.20;;;121.40;;
13649;SDS011;6898;50.918;4.688;2023-03-14T02:44:32;319.07;;;110.17;;
13649;SDS011;6898;50.918;4.688;2023-03-14T02:47:43;319.88;;;117.82;;
13649;SDS011;6898;50.918;4.688;2023-03-14T02:50:29;322.37;;;118.97;;
13649;SDS011;6898;50.918;4.688;2023-03-14T02:53:04;314.17;;;112.82;;
13649;SDS011;6898;50.918;4.688;2023-03-14T02:55:32;316.63;;;114.65;;
13649;SDS011;6898;50.918;4.688;2023-03-14T02:58:02;318.27;;;113.32;;
13649;SDS011;6898;50.918;4.688;2023-03-14T03:00:32;320.73;;;116.78;;
13649;SDS011;6898;50.918;4.688;2023-03-14T03:03:02;316.73;;;109.38;;
13649;SDS011;6898;50.918;4.688;2023-03-14T03:05:32;317.33;;;109.93;;
13649;SDS011;6898;50.918;4.688;2023-03-14T03:08:03;318.38;;;113.07;;
13649;SDS011;6898;50.918;4.688;2023-03-14T03:10:32;320.60;;;113.00;;
13649;SDS011;6898;50.918;4.688;2023-03-14T03:13:01;321.55;;;114.85;;
13649;SDS011;6898;50.918;4.688;2023-03-14T03:15:49;307.52;;;102.40;;
13649;SDS011;6898;50.918;4.688;2023-03-14T03:18:27;313.40;;;111.40;;
13649;SDS011;6898;50.918;4.688;2023-03-14T03:21:14;295.15;;;109.32;;
13649;SDS011;6898;50.918;4.688;2023-03-14T03:23:54;301.58;;;115.28;;
13649;SDS011;6898;50.918;4.688;2023-03-14T03:26:27;310.77;;;112.50;;
13649;SDS011;6898;50.918;4.688;2023-03-14T03:29:02;313.20;;;110.22;;
13649;SDS011;6898;50.918;4.688;2023-03-14T03:31:48;318.67;;;111.50;;
13649;SDS011;6898;50.918;4.688;2023-03-14T03:34:19;315.70;;;109.05;;
13649;SDS011;6898;50.918;4.688;2023-03-14T03:36:55;318.52;;;111.25;;
13649;SDS011;6898;50.918;4.688;2023-03-14T03:39:39;298.65;;;110.93;;
13649;SDS011;6898;50.918;4.688;2023-03-14T03:42:13;289.90;;;110.03;;
13649;SDS011;6898;50.918;4.688;2023-03-14T03:44:59;289.85;;;105.80;;
13649;SDS011;6898;50.918;4.688;2023-03-14T03:47:32;111.40;;;81.90;;
13649;SDS011;6898;50.918;4.688;2023-03-14T03:50:05;143.20;;;94.78;;
13649;SDS011;6898;50.918;4.688;2023-03-14T03:52:45;107.20;;;87.72;;
13649;SDS011;6898;50.918;4.688;2023-03-14T03:55:16;149.15;;;96.53;;
13649;SDS011;6898;50.918;4.688;2023-03-14T03:57:50;97.23;;;77.20;;
13649;SDS011;6898;50.918;4.688;2023-03-14T04:00:24;132.13;;;95.50;;
13649;SDS011;6898;50.918;4.688;2023-03-14T04:03:04;131.20;;;91.40;;
13649;SDS011;6898;50.918;4.688;2023-03-14T04:05:33;137.82;;;90.70;;
13649;SDS011;6898;50.918;4.688;2023-03-14T04:08:05;148.80;;;93.23;;
13649;SDS011;6898;50.918;4.688;2023-03-14T04:10:34;143.52;;;86.53;;
13649;SDS011;6898;50.918;4.688;2023-03-14T04:13:06;119.05;;;82.95;;
13649;SDS011;6898;50.918;4.688;2023-03-14T04:15:35;108.85;;;79.78;;
13649;SDS011;6898;50.918;4.688;2023-03-14T04:18:07;104.07;;;80.72;;
13649;SDS011;6898;50.918;4.688;2023-03-14T04:20:35;131.67;;;83.57;;
13649;SDS011;6898;50.918;4.688;2023-03-14T04:23:06;93.75;;;74.53;;
13649;SDS011;6898;50.918;4.688;2023-03-14T04:25:38;86.40;;;70.20;;
13649;SDS011;6898;50.918;4.688;2023-03-14T04:28:07;93.07;;;73.93;;
13649;SDS011;6898;50.918;4.688;2023-03-14T04:30:36;104.00;;;77.90;;
13649;SDS011;6898;50.918;4.688;2023-03-14T04:33:08;84.10;;;71.32;;
13649;SDS011;6898;50.918;4.688;2023-03-14T04:35:41;102.78;;;78.70;;
13649;SDS011;6898;50.918;4.688;2023-03-14T04:38:10;125.93;;;84.70;;
13649;SDS011;6898;50.918;4.688;2023-03-14T04:40:43;118.38;;;84.35;;
13649;SDS011;6898;50.918;4.688;2023-03-14T04:43:14;108.93;;;85.00;;
13649;SDS011;6898;50.918;4.688;2023-03-14T04:45:44;111.03;;;91.07;;
13649;SDS011;6898;50.918;4.688;2023-03-14T04:48:16;92.57;;;82.60;;
13649;SDS011;6898;50.918;4.688;2023-03-14T04:50:47;106.45;;;89.70;;
13649;SDS011;6898;50.918;4.688;2023-03-14T04:53:18;82.18;;;73.78;;
13649;SDS011;6898;50.918;4.688;2023-03-14T04:55:51;85.60;;;76.25;;
13649;SDS011;6898;50.918;4.688;2023-03-14T04:58:21;89.45;;;79.72;;
13649;SDS011;6898;50.918;4.688;2023-03-14T05:00:54;82.03;;;73.20;;
13649;SDS011;6898;50.918;4.688;2023-03-14T05:03:26;86.45;;;76.25;;
13649;SDS011;6898;50.918;4.688;2023-03-14T05:06:01;83.30;;;71.38;;
13649;SDS011;6898;50.918;4.688;2023-03-14T05:08:30;87.60;;;72.90;;
13649;SDS011;6898;50.918;4.688;2023-03-14T05:11:05;93.55;;;75.57;;
13649;SDS011;6898;50.918;4.688;2023-03-14T05:13:35;129.45;;;87.93;;
13649;SDS011;6898;50.918;4.688;2023-03-14T05:16:07;102.75;;;80.00;;
13649;SDS011;6898;50.918;4.688;2023-03-14T05:18:45;82.00;;;73.23;;
13649;SDS011;6898;50.918;4.688;2023-03-14T05:21:14;81.78;;;72.97;;
13649;SDS011;6898;50.918;4.688;2023-03-14T05:23:43;90.90;;;78.10;;
13649;SDS011;6898;50.918;4.688;2023-03-14T05:26:11;93.72;;;78.22;;
13649;SDS011;6898;50.918;4.688;2023-03-14T05:28:40;91.35;;;78.05;;
13649;SDS011;6898;50.918;4.688;2023-03-14T05:31:09;76.60;;;68.53;;
13649;SDS011;6898;50.918;4.688;2023-03-14T05:33:38;84.82;;;75.22;;
13649;SDS011;6898;50.918;4.688;2023-03-14T05:36:09;84.35;;;75.35;;
13649;SDS011;6898;50.918;4.688;2023-03-14T05:38:38;76.68;;;68.82;;
13649;SDS011;6898;50.918;4.688;2023-03-14T05:41:07;81.30;;;72.80;;
13649;SDS011;6898;50.918;4.688;2023-03-14T05:43:36;72.47;;;65.05;;
13649;SDS011;6898;50.918;4.688;2023-03-14T05:46:05;83.63;;;74.63;;
13649;SDS011;6898;50.918;4.688;2023-03-14T05:48:34;94.15;;;81.57;;
13649;SDS011;6898;50.918;4.688;2023-03-14T05:51:06;100.95;;;83.78;;
13649;SDS011;6898;50.918;4.688;2023-03-14T05:53:41;68.43;;;61.88;;
13649;SDS011;6898;50.918;4.688;2023-03-14T05:56:11;67.10;;;60.73;;
13649;SDS011;6898;50.918;4.688;2023-03-14T05:58:41;73.67;;;66.37;;
13649;SDS011;6898;50.918;4.688;2023-03-14T06:01:11;68.23;;;61.97;;
13649;SDS011;6898;50.918;4.688;2023-03-14T06:03:42;73.53;;;66.47;;
13649;SDS011;6898;50.918;4.688;2023-03-14T06:06:17;67.68;;;61.22;;
13649;SDS011;6898;50.918;4.688;2023-03-14T06:08:49;55.50;;;50.90;;
13649;SDS011;6898;50.918;4.688;2023-03-14T06:11:20;58.78;;;53.60;;
13649;SDS011;6898;50.918;4.688;2023-03-14T06:13:49;45.65;;;42.35;;
13649;SDS011;6898;50.918;4.688;2023-03-14T06:16:18;38.78;;;36.28;;
13649;SDS011;6898;50.918;4.688;2023-03-14T06:18:47;50.78;;;46.85;;
13649;SDS011;6898;50.918;4.688;2023-03-14T06:21:20;39.38;;;36.67;;
13649;SDS011;6898;50.918;4.688;2023-03-14T06:23:48;55.45;;;50.85;;
13649;SDS011;6898;50.918;4.688;2023-03-14T06:26:17;65.93;;;59.53;;
13649;SDS011;6898;50.918;4.688;2023-03-14T06:29:00;50.95;;;46.90;;
13649;SDS011;6898;50.918;4.688;2023-03-14T06:31:29;53.30;;;48.73;;
13649;SDS011;6898;50.918;4.688;2023-03-14T06:33:58;51.20;;;47.08;;
13649;SDS011;6898;50.918;4.688;2023-03-14T06:39:19;65.18;;;58.28;;
13649;SDS011;6898;50.918;4.688;2023-03-14T06:41:48;62.03;;;55.75;;
13649;SDS011;6898;50.918;4.688;2023-03-14T06:44:51;63.17;;;56.70;;
13649;SDS011;6898;50.918;4.688;2023-03-14T07:17:44;246.57;;;75.70;;
13649;SDS011;6898;50.918;4.688;2023-03-14T07:20:15;238.07;;;71.82;;
13649;SDS011;6898;50.918;4.688;2023-03-14T07:22:44;255.27;;;70.82;;
13649;SDS011;6898;50.918;4.688;2023-03-14T07:25:17;260.40;;;70.93;;
13649;SDS011;6898;50.918;4.688;2023-03-14T07:27:48;269.70;;;71.10;;
13649;SDS011;6898;50.918;4.688;2023-03-14T07:30:22;144.57;;;65.57;;
13649;SDS011;6898;50.918;4.688;2023-03-14T07:32:52;135.18;;;69.00;;
13649;SDS011;6898;50.918;4.688;2023-03-14T07:38:47;141.82;;;65.35;;
13649;SDS011;6898;50.918;4.688;2023-03-14T07:41:18;140.77;;;65.60;;
13649;SDS011;6898;50.918;4.688;2023-03-14T07:43:47;136.97;;;58.33;;
13649;SDS011;6898;50.918;4.688;2023-03-14T07:46:17;119.20;;;55.03;;
13649;SDS011;6898;50.918;4.688;2023-03-14T07:48:47;104.63;;;60.33;;
13649;SDS011;6898;50.918;4.688;2023-03-14T07:51:16;105.73;;;60.70;;
13649;SDS011;6898;50.918;4.688;2023-03-14T07:53:46;138.73;;;65.43;;
13649;SDS011;6898;50.918;4.688;2023-03-14T07:56:14;100.93;;;59.17;;
13649;SDS011;6898;50.918;4.688;2023-03-14T07:58:43;96.80;;;53.38;;
13649;SDS011;6898;50.918;4.688;2023-03-14T08:01:11;71.43;;;50.08;;
13649;SDS011;6898;50.918;4.688;2023-03-14T08:03:40;88.75;;;51.45;;
13649;SDS011;6898;50.918;4.688;2023-03-14T08:06:10;138.20;;;59.83;;
13649;SDS011;6898;50.918;4.688;2023-03-14T08:08:38;141.60;;;60.83;;
13649;SDS011;6898;50.918;4.688;2023-03-14T08:11:09;186.90;;;71.88;;
13649;SDS011;6898;50.918;4.688;2023-03-14T08:13:39;196.85;;;75.00;;
13649;SDS011;6898;50.918;4.688;2023-03-14T08:16:08;206.73;;;69.03;;
13649;SDS011;6898;50.918;4.688;2023-03-14T08:18:37;220.38;;;73.90;;
13649;SDS011;6898;50.918;4.688;2023-03-14T08:21:05;232.70;;;78.28;;
13649;SDS011;6898;50.918;4.688;2023-03-14T08:23:35;239.00;;;76.77;;
13649;SDS011;6898;50.918;4.688;2023-03-14T08:26:04;231.65;;;74.25;;
13649;SDS011;6898;50.918;4.688;2023-03-14T08:28:35;225.07;;;72.43;;
13649;SDS011;6898;50.918;4.688;2023-03-14T08:31:04;243.35;;;72.97;;
13649;SDS011;6898;50.918;4.688;2023-03-14T08:33:33;270.27;;;76.00;;
13649;SDS011;6898;50.918;4.688;2023-03-14T08:36:04;287.23;;;73.57;;
13649;SDS011;6898;50.918;4.688;2023-03-14T08:38:32;283.85;;;70.22;;
13649;SDS011;6898;50.918;4.688;2023-03-14T08:41:04;294.48;;;71.97;;
13649;SDS011;6898;50.918;4.688;2023-03-14T08:43:33;295.88;;;74.43;;
13649;SDS011;6898;50.918;4.688;2023-03-14T08:46:02;291.30;;;74.03;;
13649;SDS011;6898;50.918;4.688;2023-03-14T08:48:31;272.40;;;76.72;;
13649;SDS011;6898;50.918;4.688;2023-03-14T08:51:04;270.70;;;73.68;;
13649;SDS011;6898;50.918;4.688;2023-03-14T08:53:33;223.10;;;81.47;;
13649;SDS011;6898;50.918;4.688;2023-03-14T08:56:03;238.15;;;82.93;;
13649;SDS011;6898;50.918;4.688;2023-03-14T08:58:32;254.65;;;82.68;;
13649;SDS011;6898;50.918;4.688;2023-03-14T09:01:03;277.57;;;85.30;;
13649;SDS011;6898;50.918;4.688;2023-03-14T09:03:32;292.83;;;90.13;;
13649;SDS011;6898;50.918;4.688;2023-03-14T09:06:01;258.70;;;85.85;;
13649;SDS011;6898;50.918;4.688;2023-03-14T09:08:31;219.27;;;81.15;;
13649;SDS011;6898;50.918;4.688;2023-03-14T09:11:00;0.40;;;0.40;;
13649;SDS011;6898;50.918;4.688;2023-03-14T09:13:30;0.30;;;0.30;;
13649;SDS011;6898;50.918;4.688;2023-03-14T09:15:59;0.30;;;0.30;;
13649;SDS011;6898;50.918;4.688;2023-03-14T09:18:30;295.25;;;86.28;;
13649;SDS011;6898;50.918;4.688;2023-03-14T09:20:59;297.83;;;80.63;;
13649;SDS011;6898;50.918;4.688;2023-03-14T09:23:28;296.48;;;74.93;;
13649;SDS011;6898;50.918;4.688;2023-03-14T09:25:56;286.38;;;71.78;;
13649;SDS011;6898;50.918;4.688;2023-03-14T09:28:25;295.60;;;72.87;;
13649;SDS011;6898;50.918;4.688;2023-03-14T09:30:56;293.67;;;69.10;;
13649;SDS011;6898;50.918;4.688;2023-03-14T09:33:30;232.15;;;65.18;;
13649;SDS011;6898;50.918;4.688;2023-03-14T09:35:59;285.05;;;64.57;;
13649;SDS011;6898;50.918;4.688;2023-03-14T09:38:27;230.95;;;66.57;;
13649;SDS011;6898;50.918;4.688;2023-03-14T09:40:57;207.57;;;67.10;;
13649;SDS011;6898;50.918;4.688;2023-03-14T09:43:27;217.23;;;65.80;;
13649;SDS011;6898;50.918;4.688;2023-03-14T09:45:59;235.20;;;74.03;;
13649;SDS011;6898;50.918;4.688;2023-03-14T09:48:30;227.43;;;79.95;;
13649;SDS011;6898;50.918;4.688;2023-03-14T09:51:01;231.73;;;82.15;;
13649;SDS011;6898;50.918;4.688;2023-03-14T09:53:34;240.20;;;85.60;;
13649;SDS011;6898;50.918;4.688;2023-03-14T09:56:07;237.52;;;78.78;;
13649;SDS011;6898;50.918;4.688;2023-03-14T09:58:37;237.25;;;83.30;;
13649;SDS011;6898;50.918;4.688;2023-03-14T10:01:14;230.45;;;79.93;;
13649;SDS011;6898;50.918;4.688;2023-03-14T10:03:43;247.93;;;83.03;;
13649;SDS011;6898;50.918;4.688;2023-03-14T10:06:14;255.45;;;74.75;;
13649;SDS011;6898;50.918;4.688;2023-03-14T10:08:43;246.95;;;70.53;;
13649;SDS011;6898;50.918;4.688;2023-03-14T10:11:14;252.38;;;70.78;;
13649;SDS011;6898;50.918;4.688;2023-03-14T10:13:47;248.90;;;71.43;;
13649;SDS011;6898;50.918;4.688;2023-03-14T10:16:17;249.52;;;67.80;;
13649;SDS011;6898;50.918;4.688;2023-03-14T10:19:01;251.27;;;70.53;;
13649;SDS011;6898;50.918;4.688;2023-03-14T10:21:30;297.35;;;76.93;;
13649;SDS011;6898;50.918;4.688;2023-03-14T10:24:07;295.35;;;74.68;;
13649;SDS011;6898;50.918;4.688;2023-03-14T10:26:36;275.35;;;69.82;;
13649;SDS011;6898;50.918;4.688;2023-03-14T10:29:09;280.25;;;67.68;;
13649;SDS011;6898;50.918;4.688;2023-03-14T10:31:47;251.93;;;66.20;;
13649;SDS011;6898;50.918;4.688;2023-03-14T10:34:22;252.07;;;72.20;;
13649;SDS011;6898;50.918;4.688;2023-03-14T10:36:52;245.48;;;77.65;;
13649;SDS011;6898;50.918;4.688;2023-03-14T10:39:40;258.92;;;75.30;;
13649;SDS011;6898;50.918;4.688;2023-03-14T10:42:14;263.63;;;70.70;;
13649;SDS011;6898;50.918;4.688;2023-03-14T10:44:53;291.05;;;66.85;;
13649;SDS011;6898;50.918;4.688;2023-03-14T10:47:29;277.65;;;65.10;;
13649;SDS011;6898;50.918;4.688;2023-03-14T10:50:19;275.25;;;68.43;;
13649;SDS011;6898;50.918;4.688;2023-03-14T10:52:51;263.90;;;64.85;;
13649;SDS011;6898;50.918;4.688;2023-03-14T10:55:28;262.15;;;66.07;;
13649;SDS011;6898;50.918;4.688;2023-03-14T10:57:57;285.90;;;66.88;;
13649;SDS011;6898;50.918;4.688;2023-03-14T11:00:26;290.85;;;65.78;;
13649;SDS011;6898;50.918;4.688;2023-03-14T11:03:04;260.13;;;72.03;;
13649;SDS011;6898;50.918;4.688;2023-03-14T11:05:38;249.10;;;64.80;;
13649;SDS011;6898;50.918;4.688;2023-03-14T11:08:11;233.38;;;63.13;;
13649;SDS011;6898;50.918;4.688;2023-03-14T11:10:44;238.80;;;62.63;;
13649;SDS011;6898;50.918;4.688;2023-03-14T11:13:15;235.68;;;64.10;;
13649;SDS011;6898;50.918;4.688;2023-03-14T11:15:49;242.05;;;65.28;;
13649;SDS011;6898;50.918;4.688;2023-03-14T11:18:35;254.45;;;70.85;;
13649;SDS011;6898;50.918;4.688;2023-03-14T11:21:08;253.13;;;71.20;;
13649;SDS011;6898;50.918;4.688;2023-03-14T11:23:40;254.90;;;63.10;;
13649;SDS011;6898;50.918;4.688;2023-03-14T11:26:17;254.77;;;63.08;;
13649;SDS011;6898;50.918;4.688;2023-03-14T11:28:47;278.35;;;64.57;;
13649;SDS011;6898;50.918;4.688;2023-03-14T11:31:19;289.77;;;74.10;;
13649;SDS011;6898;50.918;4.688;2023-03-14T11:33:51;299.77;;;83.15;;
13649;SDS011;6898;50.918;4.688;2023-03-14T11:36:25;261.48;;;69.80;;
13649;SDS011;6898;50.918;4.688;2023-03-14T11:38:56;293.55;;;74.30;;
13649;SDS011;6898;50.918;4.688;2023-03-14T11:41:26;259.88;;;74.10;;
13649;SDS011;6898;50.918;4.688;2023-03-14T11:43:57;241.80;;;77.20;;
13649;SDS011;6898;50.918;4.688;2023-03-14T11:46:27;236.32;;;78.93;;
13649;SDS011;6898;50.918;4.688;2023-03-14T11:49:01;298.75;;;88.57;;
13649;SDS011;6898;50.918;4.688;2023-03-14T11:51:34;297.58;;;88.43;;
13649;SDS011;6898;50.918;4.688;2023-03-14T11:54:04;201.77;;;65.65;;
13649;SDS011;6898;50.918;4.688;2023-03-14T11:56:37;275.20;;;90.57;;
13649;SDS011;6898;50.918;4.688;2023-03-14T11:59:09;286.75;;;91.85;;
13649;SDS011;6898;50.918;4.688;2023-03-14T12:02:09;241.15;;;89.07;;
13649;SDS011;6898;50.918;4.688;2023-03-14T12:04:47;215.48;;;78.47;;
13649;SDS011;6898;50.918;4.688;2023-03-14T12:07:19;205.00;;;81.82;;
13649;SDS011;6898;50.918;4.688;2023-03-14T12:09:50;223.00;;;76.82;;
13649;SDS011;6898;50.918;4.688;2023-03-14T12:12:20;233.07;;;80.20;;
13649;SDS011;6898;50.918;4.688;2023-03-14T12:14:53;229.02;;;74.93;;
13649;SDS011;6898;50.918;4.688;2023-03-14T12:17:24;236.60;;;73.33;;
13649;SDS011;6898;50.918;4.688;2023-03-14T12:20:01;246.88;;;76.75;;
13649;SDS011;6898;50.918;4.688;2023-03-14T12:22:33;252.95;;;82.45;;
13649;SDS011;6898;50.918;4.688;2023-03-14T12:25:06;259.65;;;80.70;;
13649;SDS011;6898;50.918;4.688;2023-03-14T12:30:29;256.30;;;69.57;;
13649;SDS011;6898;50.918;4.688;2023-03-14T12:39:00;237.23;;;62.15;;
13649;SDS011;6898;50.918;4.688;2023-03-14T12:41:36;256.83;;;64.03;;
13649;SDS011;6898;50.918;4.688;2023-03-14T12:46:52;260.23;;;70.78;;
13649;SDS011;6898;50.918;4.688;2023-03-14T12:49:21;246.20;;;68.85;;
13649;SDS011;6898;50.918;4.688;2023-03-14T12:51:58;255.13;;;68.95;;
13649;SDS011;6898;50.918;4.688;2023-03-14T12:54:31;265.00;;;67.93;;
13649;SDS011;6898;50.918;4.688;2023-03-14T12:59:50;273.08;;;63.75;;
13649;SDS011;6898;50.918;4.688;2023-03-14T13:02:21;271.53;;;76.33;;
13649;SDS011;6898;50.918;4.688;2023-03-14T13:04:52;267.17;;;83.18;;
13649;SDS011;6898;50.918;4.688;2023-03-14T13:07:32;292.13;;;77.97;;
13649;SDS011;6898;50.918;4.688;2023-03-14T13:10:13;291.55;;;77.22;;
13649;SDS011;6898;50.918;4.688;2023-03-14T13:12:46;284.67;;;75.85;;
13649;SDS011;6898;50.918;4.688;2023-03-14T13:18:03;290.60;;;72.63;;
13649;SDS011;6898;50.918;4.688;2023-03-14T13:20:37;290.88;;;72.13;;
13649;SDS011;6898;50.918;4.688;2023-03-14T13:23:18;290.73;;;69.18;;
13649;SDS011;6898;50.918;4.688;2023-03-14T13:25:48;272.88;;;68.57;;
13649;SDS011;6898;50.918;4.688;2023-03-14T13:28:20;277.52;;;66.78;;
13649;SDS011;6898;50.918;4.688;2023-03-14T13:30:54;283.75;;;61.53;;
13649;SDS011;6898;50.918;4.688;2023-03-14T13:33:24;257.92;;;58.15;;
13649;SDS011;6898;50.918;4.688;2023-03-14T13:36:04;286.58;;;64.82;;
13649;SDS011;6898;50.918;4.688;2023-03-14T13:38:34;41.47;;;22.92;;
13649;SDS011;6898;50.918;4.688;2023-03-14T13:41:06;295.20;;;67.50;;
13649;SDS011;6898;50.918;4.688;2023-03-14T13:43:35;292.65;;;67.03;;
13649;SDS011;6898;50.918;4.688;2023-03-14T13:46:05;293.92;;;69.53;;
13649;SDS011;6898;50.918;4.688;2023-03-14T13:48:34;293.90;;;70.73;;
13649;SDS011;6898;50.918;4.688;2023-03-14T13:51:04;294.30;;;69.35;;
13649;SDS011;6898;50.918;4.688;2023-03-14T13:53:41;296.73;;;76.20;;
13649;SDS011;6898;50.918;4.688;2023-03-14T13:56:12;296.80;;;75.63;;
13649;SDS011;6898;50.918;4.688;2023-03-14T13:58:41;295.15;;;75.50;;
13649;SDS011;6898;50.918;4.688;2023-03-14T14:01:12;292.05;;;72.18;;
13649;SDS011;6898;50.918;4.688;2023-03-14T14:03:41;293.08;;;76.05;;
13649;SDS011;6898;50.918;4.688;2023-03-14T14:06:16;292.67;;;77.07;;
13649;SDS011;6898;50.918;4.688;2023-03-14T14:08:48;296.75;;;85.45;;
13649;SDS011;6898;50.918;4.688;2023-03-14T14:11:20;298.73;;;82.00;;
13649;SDS011;6898;50.918;4.688;2023-03-14T14:13:53;300.85;;;86.32;;
13649;SDS011;6898;50.918;4.688;2023-03-14T14:16:23;301.17;;;87.05;;
13649;SDS011;6898;50.918;4.688;2023-03-14T14:18:53;300.50;;;87.60;;
13649;SDS011;6898;50.918;4.688;2023-03-14T14:21:23;300.63;;;85.83;;
13649;SDS011;6898;50.918;4.688;2023-03-14T14:23:52;300.55;;;83.53;;
13649;SDS011;6898;50.918;4.688;2023-03-14T14:26:23;303.23;;;87.85;;
13649;SDS011;6898;50.918;4.688;2023-03-14T14:28:58;295.15;;;78.50;;
13649;SDS011;6898;50.918;4.688;2023-03-14T14:31:27;296.47;;;78.07;;
13649;SDS011;6898;50.918;4.688;2023-03-14T14:33:58;296.98;;;80.80;;
13649;SDS011;6898;50.918;4.688;2023-03-14T14:36:28;312.73;;;88.32;;
13649;SDS011;6898;50.918;4.688;2023-03-14T14:38:59;302.80;;;83.22;;
13649;SDS011;6898;50.918;4.688;2023-03-14T14:41:34;302.23;;;81.72;;
13649;SDS011;6898;50.918;4.688;2023-03-14T14:44:04;303.47;;;83.03;;
13649;SDS011;6898;50.918;4.688;2023-03-14T14:46:36;299.75;;;78.28;;
13649;SDS011;6898;50.918;4.688;2023-03-14T14:49:06;297.87;;;73.40;;
13649;SDS011;6898;50.918;4.688;2023-03-14T14:51:39;297.67;;;74.03;;
13649;SDS011;6898;50.918;4.688;2023-03-14T14:54:11;292.30;;;67.95;;
13649;SDS011;6898;50.918;4.688;2023-03-14T14:56:44;290.87;;;66.17;;
13649;SDS011;6898;50.918;4.688;2023-03-14T14:59:55;293.23;;;63.85;;
13649;SDS011;6898;50.918;4.688;2023-03-14T15:02:44;284.05;;;58.20;;
13649;SDS011;6898;50.918;4.688;2023-03-14T15:05:23;288.00;;;63.53;;
13649;SDS011;6898;50.918;4.688;2023-03-14T15:08:10;284.92;;;61.17;;
13649;SDS011;6898;50.918;4.688;2023-03-14T15:10:49;283.75;;;60.58;;
13649;SDS011;6898;50.918;4.688;2023-03-14T15:13:23;279.98;;;57.45;;
13649;SDS011;6898;50.918;4.688;2023-03-14T15:15:52;284.38;;;61.97;;
13649;SDS011;6898;50.918;4.688;2023-03-14T15:18:23;287.02;;;62.72;;
13649;SDS011;6898;50.918;4.688;2023-03-14T15:20:56;289.93;;;68.83;;
13649;SDS011;6898;50.918;4.688;2023-03-14T15:23:24;287.85;;;66.35;;
13649;SDS011;6898;50.918;4.688;2023-03-14T15:25:53;288.90;;;70.50;;
13649;SDS011;6898;50.918;4.688;2023-03-14T15:28:24;289.15;;;68.28;;
13649;SDS011;6898;50.918;4.688;2023-03-14T15:30:54;292.60;;;71.47;;
13649;SDS011;6898;50.918;4.688;2023-03-14T15:33:23;292.33;;;72.70;;
13649;SDS011;6898;50.918;4.688;2023-03-14T15:35:52;292.35;;;71.05;;
13649;SDS011;6898;50.918;4.688;2023-03-14T15:38:21;292.88;;;72.25;;
13649;SDS011;6898;50.918;4.688;2023-03-14T15:40:50;293.92;;;71.82;;
13649;SDS011;6898;50.918;4.688;2023-03-14T15:43:19;290.85;;;68.05;;
13649;SDS011;6898;50.918;4.688;2023-03-14T15:45:49;290.98;;;72.00;;
13649;SDS011;6898;50.918;4.688;2023-03-14T15:48:25;290.08;;;66.50;;